createdAt,value
2022-11-04T00:01:30.203Z,75.24
2022-11-04T00:03:58.043Z,75.31
2022-11-04T00:06:26.037Z,75.30
2022-11-04T00:08:57.075Z,75.48
2022-11-04T00:11:42.834Z,75.57
2022-11-04T00:14:11.241Z,75.43
2022-11-04T00:16:56.555Z,75.27
2022-11-04T00:19:24.826Z,75.47
2022-11-04T00:22:10.289Z,75.36
2022-11-04T00:24:57.066Z,75.61
2022-11-04T00:27:42.209Z,75.44
2022-11-04T00:30:11.913Z,75.47
2022-11-04T00:32:57.316Z,75.45
2022-11-04T00:35:24.928Z,75.30
2022-11-04T00:37:52.727Z,75.17
2022-11-04T00:40:21.835Z,75.19
2022-11-04T00:42:49.365Z,75.51
2022-11-04T00:45:17.003Z,75.12
2022-11-04T00:47:44.648Z,75.02
2022-11-04T00:50:12.228Z,74.98
2022-11-04T00:52:39.794Z,75.06
2022-11-04T00:55:08.442Z,74.93
2022-11-04T00:57:37.413Z,74.65
2022-11-04T01:00:05.913Z,74.69
2022-11-04T01:02:33.707Z,74.49
2022-11-04T01:05:01.417Z,74.81
2022-11-04T01:07:29.067Z,74.58
2022-11-04T01:09:56.694Z,74.30
2022-11-04T01:12:24.254Z,74.28
2022-11-04T01:14:53.313Z,74.01
2022-11-04T01:17:20.909Z,73.94
2022-11-04T01:19:48.494Z,73.73
2022-11-04T01:22:16.067Z,73.63
2022-11-04T01:24:43.844Z,73.45
2022-11-04T01:27:14.581Z,73.29
2022-11-04T01:29:42.355Z,73.11
2022-11-04T01:32:11.529Z,72.90
2022-11-04T01:34:43.263Z,72.79
2022-11-04T01:37:11.659Z,72.60
2022-11-04T01:39:39.250Z,72.68
2022-11-04T01:42:06.905Z,72.36
2022-11-04T01:44:55.590Z,72.30
2022-11-04T01:47:30.116Z,72.40
2022-11-04T01:50:01.748Z,71.86
2022-11-04T01:52:33.402Z,72.41
2022-11-04T01:55:06.537Z,72.13
2022-11-04T01:57:37.785Z,71.97
2022-11-04T02:00:08.754Z,72.04
2022-11-04T02:02:45.227Z,71.83
2022-11-04T02:05:12.846Z,71.94
2022-11-04T02:07:40.391Z,71.72
2022-11-04T02:10:08.770Z,71.91
2022-11-04T02:12:50.380Z,71.92
2022-11-04T02:15:24.464Z,72.20
2022-11-04T02:18:07.123Z,72.02
2022-11-04T02:20:56.287Z,72.11
2022-11-04T02:23:42.438Z,72.09
2022-11-04T02:26:42.256Z,71.78
2022-11-04T02:29:27.169Z,71.90
2022-11-04T02:32:00.529Z,71.85
2022-11-04T02:34:35.198Z,71.36
2022-11-04T02:37:13.918Z,71.46
2022-11-04T02:39:52.262Z,71.54
2022-11-04T02:42:27.264Z,71.30
2022-11-04T02:45:03.787Z,71.28
2022-11-04T02:47:33.348Z,71.21
2022-11-04T02:50:08.497Z,71.38
2022-11-04T02:52:45.870Z,71.82
2022-11-04T02:55:19.662Z,71.89
2022-11-04T02:57:51.555Z,71.80
2022-11-04T03:00:21.570Z,71.83
2022-11-04T03:02:53.924Z,72.12
2022-11-04T03:05:26.848Z,72.06
2022-11-04T03:07:57.606Z,72.00
2022-11-04T03:10:29.364Z,72.24
2022-11-04T03:13:01.568Z,72.34
2022-11-04T03:15:35.169Z,72.41
2022-11-04T03:18:11.906Z,72.40
2022-11-04T03:20:41.870Z,72.21
2022-11-04T03:23:11.149Z,72.30
2022-11-04T03:25:42.705Z,72.34
2022-11-04T03:28:26.023Z,72.61
2022-11-04T03:31:00.749Z,72.50
2022-11-04T03:33:34.849Z,72.40
2022-11-04T03:36:03.037Z,72.23
2022-11-04T03:38:30.644Z,72.18
2022-11-04T03:41:00.775Z,72.33
2022-11-04T03:43:29.320Z,72.31
2022-11-04T03:45:58.627Z,72.32
2022-11-04T03:48:26.555Z,72.28
2022-11-04T03:50:54.084Z,72.32
2022-11-04T03:53:24.209Z,72.52
2022-11-04T03:56:07.214Z,72.48
2022-11-04T03:58:44.612Z,72.80
2022-11-04T04:01:25.839Z,72.73
2022-11-04T04:04:00.589Z,72.58
2022-11-04T04:06:32.133Z,72.43
2022-11-04T04:09:06.614Z,72.51
2022-11-04T04:11:43.795Z,72.26
2022-11-04T04:14:38.213Z,71.84
2022-11-04T04:17:12.434Z,71.27
2022-11-04T04:19:43.159Z,70.83
2022-11-04T04:22:15.631Z,69.88
2022-11-04T04:25:05.890Z,70.17
2022-11-04T04:27:35.495Z,70.10
2022-11-04T04:30:06.797Z,70.07
2022-11-04T04:32:40.267Z,70.48
2022-11-04T04:35:23.579Z,70.10
2022-11-04T04:37:53.231Z,70.10
2022-11-04T04:40:43.101Z,69.73
2022-11-04T04:43:34.875Z,69.84
2022-11-04T04:46:03.517Z,69.24
2022-11-04T04:48:54.005Z,69.06
2022-11-04T04:51:22.982Z,69.00
2022-11-04T04:53:51.063Z,69.13
2022-11-04T04:56:18.734Z,68.95
2022-11-04T04:58:46.273Z,69.23
2022-11-04T05:01:13.880Z,69.01
2022-11-04T05:03:45.289Z,69.53
2022-11-04T05:06:13.006Z,69.25
2022-11-04T05:08:40.551Z,68.74
2022-11-04T05:11:08.138Z,69.34
2022-11-04T05:13:35.682Z,68.61
2022-11-04T05:16:05.667Z,68.15
2022-11-04T05:18:33.207Z,68.13
2022-11-04T05:21:04.882Z,68.13
2022-11-04T05:23:32.387Z,68.05
2022-11-04T05:26:00.318Z,68.62
2022-11-04T05:28:28.001Z,68.22
2022-11-04T05:30:55.528Z,68.18
2022-11-04T05:33:23.091Z,68.37
2022-11-04T05:35:50.566Z,68.49
2022-11-04T05:38:19.470Z,68.49
2022-11-04T05:40:47.041Z,68.66
2022-11-04T05:43:14.557Z,68.55
2022-11-04T05:45:42.080Z,68.73
2022-11-04T05:48:12.148Z,68.88
2022-11-04T05:50:43.156Z,68.85
2022-11-04T05:53:11.351Z,68.95
2022-11-04T05:55:40.503Z,69.13
2022-11-04T05:58:08.320Z,68.94
2022-11-04T06:00:36.100Z,69.30
2022-11-04T06:03:03.883Z,70.22
2022-11-04T06:05:32.041Z,70.29
2022-11-04T06:07:59.609Z,70.02
2022-11-04T06:10:27.182Z,69.78
2022-11-04T06:12:57.018Z,68.94
2022-11-04T06:15:24.529Z,68.88
2022-11-04T06:17:52.023Z,69.60
2022-11-04T06:20:19.629Z,68.73
2022-11-04T06:22:47.164Z,68.67
2022-11-04T06:25:17.759Z,68.90
2022-11-04T06:27:45.267Z,68.78
2022-11-04T06:30:14.431Z,69.21
2022-11-04T06:32:42.612Z,69.53
2022-11-04T06:35:10.602Z,69.80
2022-11-04T06:37:38.820Z,69.96
2022-11-04T06:40:08.371Z,70.07
2022-11-04T06:42:36.133Z,69.86
2022-11-04T06:45:03.790Z,69.35
2022-11-04T06:47:32.710Z,69.81
2022-11-04T06:50:00.235Z,70.10
2022-11-04T06:52:27.829Z,70.50
2022-11-04T06:54:55.473Z,70.09
2022-11-04T06:57:23.062Z,70.60
2022-11-04T06:59:50.660Z,69.85
2022-11-04T07:02:18.296Z,70.74
2022-11-04T07:04:47.217Z,69.76
2022-11-04T07:07:14.768Z,70.21
2022-11-04T07:09:42.350Z,70.50
2022-11-04T07:12:10.027Z,70.61
2022-11-04T07:14:37.592Z,70.10
2022-11-04T07:17:05.102Z,70.36
2022-11-04T07:19:32.627Z,70.61
2022-11-04T07:22:01.502Z,70.56
2022-11-04T07:24:29.002Z,70.15
2022-11-04T07:26:56.592Z,70.16
2022-11-04T07:29:25.331Z,70.03
2022-11-04T07:31:52.805Z,70.42
2022-11-04T07:34:20.333Z,69.99
2022-11-04T07:36:47.919Z,69.78
2022-11-04T07:39:17.057Z,69.85
2022-11-04T07:41:44.635Z,70.19
2022-11-04T07:44:12.778Z,69.89
2022-11-04T07:46:41.361Z,70.12
2022-11-04T07:49:08.985Z,70.17
2022-11-04T07:51:36.533Z,69.98
2022-11-04T07:54:04.266Z,70.06
2022-11-04T07:56:33.241Z,70.09
2022-11-04T07:59:01.007Z,69.92
2022-11-04T08:01:28.622Z,69.99
2022-11-04T08:03:56.205Z,69.85
2022-11-04T08:06:23.783Z,69.70
2022-11-04T08:08:53.955Z,69.79
2022-11-04T08:11:25.115Z,69.92
2022-11-04T08:13:54.062Z,70.08
2022-11-04T08:16:23.457Z,69.96
2022-11-04T08:18:53.390Z,70.06
2022-11-04T08:21:21.705Z,70.12
2022-11-04T08:23:51.390Z,69.74
2022-11-04T08:26:20.200Z,69.90
2022-11-04T08:28:47.972Z,69.71
2022-11-04T08:31:18.613Z,69.33
2022-11-04T08:33:46.383Z,69.22
2022-11-04T08:36:16.614Z,68.76
2022-11-04T08:38:44.669Z,68.84
2022-11-04T08:41:14.831Z,68.89
2022-11-04T08:43:42.790Z,68.80
2022-11-04T08:46:11.679Z,68.65
2022-11-04T08:48:41.582Z,68.46
2022-11-04T08:54:08.357Z,68.31
2022-11-04T09:17:22.440Z,67.51
2022-11-04T09:19:54.067Z,67.12
2022-11-04T09:22:59.299Z,66.96
2022-11-04T12:02:00.274Z,53.45
2022-11-04T12:14:59.986Z,52.88
2022-11-04T12:23:22.276Z,51.98
2022-11-04T13:45:53.018Z,53.51
2022-11-04T14:50:56.498Z,54.78
2022-11-04T14:53:29.266Z,54.66
2022-11-04T14:56:22.996Z,55.23
2022-11-04T14:58:59.146Z,54.88
2022-11-04T15:01:34.201Z,55.07
2022-11-04T15:04:12.286Z,55.43
2022-11-04T15:06:57.694Z,55.36
2022-11-04T15:09:27.526Z,55.62
2022-11-04T15:12:23.443Z,56.08
2022-11-04T15:14:50.995Z,56.25
2022-11-04T15:17:21.234Z,56.85
2022-11-04T15:19:52.094Z,57.34
2022-11-04T15:22:21.625Z,56.83
2022-11-04T15:24:50.627Z,56.74
2022-11-04T15:27:25.025Z,57.28
2022-11-04T15:29:56.080Z,57.27
2022-11-04T15:32:24.487Z,57.62
2022-11-04T15:34:53.686Z,57.16
2022-11-04T15:37:24.520Z,57.49
2022-11-04T15:39:56.154Z,58.06
2022-11-04T15:42:39.755Z,57.66
2022-11-04T15:45:27.429Z,58.27
2022-11-04T15:48:22.589Z,59.18
2022-11-04T15:50:55.260Z,59.43
2022-11-04T15:53:24.019Z,59.49
2022-11-04T15:55:51.599Z,59.72
2022-11-04T15:58:20.103Z,60.13
2022-11-04T16:00:53.687Z,60.70
2022-11-04T16:03:22.817Z,60.72
2022-11-04T16:06:02.470Z,61.37
2022-11-04T16:08:32.821Z,61.08
2022-11-04T16:11:12.272Z,61.51
2022-11-04T16:13:40.346Z,61.22
2022-11-04T16:16:19.791Z,61.55
2022-11-04T16:18:53.281Z,61.90
2022-11-04T16:21:27.782Z,61.99
2022-11-04T16:24:01.744Z,62.00
2022-11-04T16:26:33.176Z,61.85
2022-11-04T16:29:01.867Z,61.88
2022-11-04T16:31:34.537Z,62.24
2022-11-04T16:34:02.390Z,62.28
2022-11-04T16:36:35.347Z,61.91
2022-11-04T16:39:08.566Z,62.33
2022-11-04T16:41:37.505Z,61.94
2022-11-04T16:44:06.261Z,62.17
2022-11-04T16:46:34.611Z,62.33
2022-11-04T16:49:02.141Z,62.50
2022-11-04T16:51:29.687Z,62.67
2022-11-04T16:53:57.227Z,62.85
2022-11-04T16:56:27.526Z,63.04
2022-11-04T16:58:55.050Z,62.96
2022-11-04T17:01:22.643Z,63.22
2022-11-04T17:03:50.302Z,63.16
2022-11-04T17:06:18.119Z,63.15
2022-11-04T17:08:45.731Z,63.28
2022-11-04T17:11:13.865Z,63.28
2022-11-04T17:13:42.744Z,63.43
2022-11-04T17:16:14.299Z,63.31
2022-11-04T17:18:42.420Z,63.33
2022-11-04T17:21:14.658Z,63.49
2022-11-04T17:23:42.503Z,63.47
2022-11-04T17:26:10.507Z,63.51
2022-11-04T17:28:38.026Z,63.73
2022-11-04T17:31:07.919Z,64.05
2022-11-04T17:33:35.482Z,63.88
2022-11-04T17:36:07.702Z,64.41
2022-11-04T17:38:35.505Z,64.26
2022-11-04T17:41:20.679Z,64.93
2022-11-04T17:44:04.523Z,64.56
2022-11-04T17:46:35.031Z,64.52
2022-11-04T17:49:03.767Z,64.30
2022-11-04T17:51:32.174Z,64.48
2022-11-04T17:53:59.944Z,64.56
2022-11-04T17:56:27.557Z,64.85
2022-11-04T17:58:55.205Z,65.06
2022-11-04T18:01:24.591Z,65.44
2022-11-04T18:03:54.375Z,65.52
2022-11-04T18:06:22.462Z,65.42
2022-11-04T18:08:50.282Z,65.47
2022-11-04T18:11:31.757Z,65.61
2022-11-04T18:13:59.263Z,65.61
2022-11-04T18:16:26.812Z,65.80
2022-11-04T18:18:56.006Z,65.74
2022-11-04T18:21:23.554Z,65.98
2022-11-04T18:23:51.123Z,66.04
2022-11-04T18:26:19.111Z,65.77
2022-11-04T18:28:46.643Z,65.80
2022-11-04T18:31:20.982Z,65.78
2022-11-04T18:33:48.521Z,65.90
2022-11-04T18:36:17.337Z,65.80
2022-11-04T18:38:46.680Z,65.87
2022-11-04T18:41:14.769Z,65.91
2022-11-04T18:43:42.292Z,66.00
2022-11-04T18:46:11.519Z,65.78
2022-11-04T18:48:39.795Z,65.91
2022-11-04T18:51:09.890Z,66.01
2022-11-04T18:53:39.408Z,66.15
2022-11-04T18:56:08.885Z,66.07
2022-11-04T18:58:38.991Z,66.24
2022-11-04T19:01:08.767Z,66.04
2022-11-04T19:03:36.930Z,66.26
2022-11-04T19:06:08.403Z,66.17
2022-11-04T19:08:42.284Z,66.14
2022-11-04T19:11:14.959Z,66.10
2022-11-04T19:13:42.883Z,66.28
2022-11-04T19:16:12.477Z,66.23
2022-11-04T19:18:40.790Z,65.88
2022-11-04T19:21:11.066Z,65.89
2022-11-04T19:23:40.266Z,66.00
2022-11-04T19:26:08.981Z,65.80
2022-11-04T19:28:47.689Z,65.92
2022-11-04T19:31:18.714Z,65.92
2022-11-04T19:33:46.713Z,66.30
2022-11-04T19:36:16.035Z,66.62
2022-11-04T19:38:44.976Z,67.16
2022-11-04T19:41:34.186Z,67.33
2022-11-04T19:44:01.737Z,67.13
2022-11-04T19:46:29.700Z,67.38
2022-11-04T19:48:57.247Z,67.61
2022-11-04T19:51:30.688Z,67.74
2022-11-04T19:54:02.092Z,67.84
2022-11-04T19:56:30.576Z,68.04
2022-11-04T19:59:03.066Z,68.26
2022-11-04T20:01:34.279Z,68.25
2022-11-04T20:04:02.558Z,68.24
2022-11-04T20:06:31.899Z,68.32
2022-11-04T20:09:05.036Z,68.60
2022-11-04T20:11:33.155Z,68.46
2022-11-04T20:14:04.734Z,68.82
2022-11-04T20:16:39.155Z,69.04
2022-11-04T20:19:06.734Z,69.11
2022-11-04T20:21:37.110Z,69.66
2022-11-04T20:24:09.267Z,69.56
2022-11-04T20:26:38.612Z,69.61
2022-11-04T20:29:07.223Z,69.75
2022-11-04T20:31:37.166Z,69.71
2022-11-04T20:34:07.842Z,69.79
2022-11-04T20:36:36.883Z,69.23
2022-11-04T20:39:07.671Z,69.26
2022-11-04T20:41:35.215Z,69.35
2022-11-04T20:44:04.080Z,69.28
2022-11-04T20:46:34.686Z,69.19
2022-11-04T20:49:03.733Z,69.02
